createdAt,value
2024-04-18T00:05:38.408Z,64.07
2024-04-18T00:11:40.058Z,63.65
2024-04-18T00:17:41.842Z,63.97
2024-04-18T00:23:44.487Z,63.83
2024-04-18T00:29:46.239Z,63.99
2024-04-18T00:35:47.891Z,64.00
2024-04-18T00:41:49.542Z,64.17
2024-04-18T00:47:51.298Z,64.16
2024-04-18T00:53:54.174Z,64.50
2024-04-18T00:59:56.230Z,64.69
2024-04-18T01:05:57.911Z,64.30
2024-04-18T01:11:59.547Z,64.51
2024-04-18T01:18:01.297Z,64.94
2024-04-18T01:24:03.248Z,64.83
2024-04-18T01:30:05.461Z,64.65
2024-04-18T01:36:07.517Z,64.97
2024-04-18T01:42:09.106Z,64.77
2024-04-18T01:48:10.922Z,64.97
2024-04-18T01:54:12.626Z,65.36
2024-04-18T02:00:14.497Z,65.33
2024-04-18T02:06:16.565Z,65.11
2024-04-18T02:12:18.229Z,65.53
2024-04-18T02:18:19.895Z,65.76
2024-04-18T02:24:21.715Z,65.56
2024-04-18T02:30:26.768Z,65.78
2024-04-18T02:36:29.203Z,65.32
2024-04-18T02:42:32.015Z,65.53
2024-04-18T02:48:33.759Z,65.88
2024-04-18T02:54:35.445Z,66.00
2024-04-18T03:00:37.591Z,66.07
2024-04-18T03:06:39.385Z,65.92
2024-04-18T03:12:41.196Z,66.27
2024-04-18T03:18:43.847Z,66.31
2024-04-18T03:24:45.563Z,66.86
2024-04-18T03:30:47.211Z,66.62
2024-04-18T03:36:48.990Z,67.16
2024-04-18T03:42:50.703Z,67.30
2024-04-18T03:48:52.587Z,67.13
2024-04-18T03:55:01.403Z,67.48
2024-04-18T04:01:06.151Z,67.35
2024-04-18T04:07:07.814Z,67.90
2024-04-18T04:13:10.212Z,68.09
2024-04-18T04:19:11.915Z,68.08
2024-04-18T04:25:13.990Z,68.40
2024-04-18T04:31:15.763Z,68.58
2024-04-18T04:37:18.042Z,68.75
2024-04-18T04:43:19.650Z,68.42
2024-04-18T04:49:21.559Z,68.15
2024-04-18T04:55:23.255Z,68.40
2024-04-18T05:01:24.937Z,68.25
2024-04-18T05:07:26.928Z,68.34
2024-04-18T05:13:28.546Z,68.32
2024-04-18T05:19:30.135Z,68.54
2024-04-18T05:25:31.783Z,68.96
2024-04-18T05:31:33.486Z,68.69
2024-04-18T05:37:35.093Z,68.95
2024-04-18T05:43:36.715Z,68.71
2024-04-18T05:49:38.265Z,68.76
2024-04-18T05:55:41.467Z,68.50
2024-04-18T06:01:43.328Z,68.15
2024-04-18T06:07:46.580Z,67.68
2024-04-18T06:13:48.550Z,67.34
2024-04-18T06:19:53.412Z,67.42
2024-04-18T06:25:55.012Z,66.29
2024-04-18T06:31:56.626Z,66.13
2024-04-18T06:37:58.262Z,65.18
2024-04-18T06:43:59.943Z,65.05
2024-04-18T06:50:01.628Z,64.67
2024-04-18T06:56:03.704Z,63.81
2024-04-18T07:02:05.376Z,63.58
2024-04-18T07:08:07.433Z,63.45
2024-04-18T07:14:09.357Z,62.85
2024-04-18T07:20:10.988Z,62.46
2024-04-18T07:26:12.681Z,62.41
2024-04-18T07:32:14.244Z,62.40
2024-04-18T07:38:15.936Z,61.30
2024-04-18T07:44:20.049Z,61.14
2024-04-18T07:50:23.198Z,60.71
2024-04-18T07:56:25.439Z,60.81
2024-04-18T08:02:29.478Z,60.49
2024-04-18T08:08:35.130Z,59.99
2024-04-18T08:14:42.163Z,59.22
2024-04-18T08:20:49.497Z,58.76
2024-04-18T08:26:51.149Z,56.32
2024-04-18T08:32:52.829Z,54.80
2024-04-18T08:38:54.482Z,54.22
2024-04-18T08:44:56.655Z,54.51
2024-04-18T08:51:01.823Z,55.68
2024-04-18T08:57:08.336Z,52.90
2024-04-18T09:03:10.244Z,51.73
2024-04-18T09:09:13.371Z,52.79
2024-04-18T09:15:15.152Z,52.24
2024-04-18T09:21:17.096Z,50.98
2024-04-18T09:27:18.810Z,48.65
2024-04-18T09:33:22.175Z,50.28
2024-04-18T09:39:29.202Z,52.63
2024-04-18T09:45:49.121Z,51.43
2024-04-18T09:51:52.075Z,49.69
2024-04-18T09:57:54.733Z,49.31
2024-04-18T10:03:56.801Z,50.11
2024-04-18T10:10:00.559Z,49.71
2024-04-18T10:16:10.701Z,49.71
2024-04-18T10:22:23.521Z,47.29
2024-04-18T10:28:34.089Z,49.24
2024-04-18T10:34:35.907Z,48.92
2024-04-18T10:40:57.553Z,50.76
2024-04-18T10:47:00.127Z,46.62
2024-04-18T10:53:04.388Z,47.52
2024-04-18T10:59:08.578Z,48.60
2024-04-18T11:05:10.191Z,48.80
2024-04-18T11:11:12.190Z,50.75
2024-04-18T11:17:36.895Z,50.84
2024-04-18T11:23:44.209Z,49.94
2024-04-18T11:29:52.002Z,48.06
2024-04-18T11:35:53.868Z,47.60
2024-04-18T11:41:55.492Z,46.69
2024-04-18T11:47:58.200Z,46.12
2024-04-18T11:54:00.042Z,40.67
2024-04-18T12:00:01.845Z,41.57
2024-04-18T12:06:03.760Z,42.30
2024-04-18T12:12:05.775Z,42.40
2024-04-18T12:18:07.627Z,40.87
2024-04-18T12:24:09.695Z,39.85
2024-04-18T12:30:11.792Z,40.74
2024-04-18T12:36:13.639Z,40.53
2024-04-18T12:42:16.271Z,39.11
2024-04-18T12:48:18.164Z,40.19
2024-04-18T12:54:19.933Z,38.08
2024-04-18T13:00:21.672Z,38.27
2024-04-18T13:06:24.394Z,38.06
2024-04-18T13:12:25.993Z,37.24
2024-04-18T13:18:27.865Z,37.36
2024-04-18T13:24:29.520Z,37.30
2024-04-18T13:30:31.262Z,37.39
2024-04-18T13:36:33.011Z,37.26
2024-04-18T13:42:34.738Z,36.52
2024-04-18T13:48:36.784Z,37.37
2024-04-18T13:54:38.550Z,36.52
2024-04-18T14:00:40.224Z,35.72
2024-04-18T14:06:42.063Z,36.67
2024-04-18T14:12:43.791Z,36.77
2024-04-18T14:18:45.410Z,37.63
2024-04-18T14:24:47.131Z,35.62
2024-04-18T14:30:48.783Z,36.78
2024-04-18T14:36:50.423Z,36.06
2024-04-18T14:42:52.530Z,37.30
2024-04-18T14:48:56.256Z,38.46
2024-04-18T14:54:57.916Z,37.88
2024-04-18T15:00:59.540Z,38.72
2024-04-18T15:07:01.207Z,38.94
2024-04-18T15:13:02.852Z,38.73
2024-04-18T15:19:04.516Z,40.40
2024-04-18T15:25:06.844Z,39.59
2024-04-18T15:31:08.440Z,38.74
2024-04-18T15:37:10.056Z,40.82
2024-04-18T15:43:11.663Z,40.73
2024-04-18T15:49:14.621Z,42.31
2024-04-18T15:55:21.743Z,42.48
2024-04-18T16:01:24.829Z,43.08
2024-04-18T16:07:26.560Z,44.80
2024-04-18T16:13:28.202Z,43.38
2024-04-18T16:19:29.757Z,43.85
2024-04-18T16:25:34.183Z,45.09
2024-04-18T16:31:39.048Z,45.17
2024-04-18T16:37:41.143Z,44.77
2024-04-18T16:43:42.874Z,45.63
2024-04-18T16:49:44.536Z,46.62
2024-04-18T16:55:46.365Z,45.88
2024-04-18T17:01:47.981Z,46.92
2024-04-18T17:07:49.668Z,48.24
2024-04-18T17:13:52.844Z,47.67
2024-04-18T17:19:55.600Z,49.01
2024-04-18T17:25:57.289Z,50.39
2024-04-18T17:31:58.926Z,50.22
2024-04-18T17:38:00.817Z,51.45
2024-04-18T17:44:02.939Z,52.96
2024-04-18T17:50:04.917Z,54.93
2024-04-18T17:56:06.803Z,55.31
2024-04-18T18:02:08.612Z,56.36
2024-04-18T18:08:10.326Z,56.93
2024-04-18T18:14:11.936Z,57.46
2024-04-18T18:20:13.608Z,57.51
2024-04-18T18:26:15.484Z,57.80
2024-04-18T18:32:17.744Z,57.94
2024-04-18T18:38:19.365Z,57.66
2024-04-18T18:44:21.032Z,58.44
2024-04-18T18:50:23.266Z,59.31
2024-04-18T18:56:24.941Z,59.19
2024-04-18T19:02:26.674Z,59.21
2024-04-18T19:08:28.410Z,59.79
2024-04-18T19:14:30.075Z,60.94
2024-04-18T19:20:31.688Z,60.52
2024-04-18T19:26:33.276Z,60.65
2024-04-18T19:32:34.992Z,60.40
2024-04-18T19:38:36.617Z,60.95
2024-04-18T19:44:38.512Z,60.94
2024-04-18T19:50:40.149Z,61.10
2024-04-18T19:56:41.966Z,61.83
2024-04-18T20:02:43.689Z,62.12
2024-04-18T20:08:45.857Z,62.31
2024-04-18T20:14:48.142Z,62.43
2024-04-18T20:20:49.786Z,63.03
2024-04-18T20:26:51.380Z,62.75
2024-04-18T20:32:53.119Z,63.17
2024-04-18T20:38:54.714Z,62.60
2024-04-18T20:44:56.403Z,61.89
2024-04-18T20:50:58.009Z,61.86
2024-04-18T20:56:59.659Z,61.82
2024-04-18T21:03:01.334Z,61.75
2024-04-18T21:09:03.119Z,61.99
2024-04-18T21:15:05.273Z,61.67
2024-04-18T21:21:07.015Z,61.85
2024-04-18T21:27:08.798Z,61.91
2024-04-18T21:33:10.699Z,61.90
2024-04-18T21:39:12.599Z,62.04
2024-04-18T21:45:14.332Z,62.75
2024-04-18T21:51:16.092Z,63.08
2024-04-18T21:57:17.846Z,63.17
2024-04-18T22:03:19.718Z,63.69
2024-04-18T22:09:21.605Z,63.84
2024-04-18T22:15:23.327Z,63.70
2024-04-18T22:21:25.109Z,63.45
2024-04-18T22:27:26.846Z,63.88
2024-04-18T22:33:28.785Z,64.36
2024-04-18T22:39:30.556Z,64.28
2024-04-18T22:45:33.176Z,64.39
2024-04-18T22:51:34.972Z,64.35
2024-04-18T22:57:36.699Z,64.27
2024-04-18T23:03:38.836Z,64.12
2024-04-18T23:09:40.620Z,63.98
2024-04-18T23:15:42.410Z,64.08
2024-04-18T23:21:44.291Z,64.38
2024-04-18T23:27:46.380Z,64.08
2024-04-18T23:33:48.063Z,63.42
2024-04-18T23:39:49.847Z,62.63
2024-04-18T23:45:51.643Z,62.52
2024-04-18T23:51:53.365Z,61.95
2024-04-18T23:57:55.051Z,61.37
